Current River (Missouri), Doniphan (07068000)

StateMissouriLatestLow (2300 cfs)
RiverCurrent RiverRatingObservedEstimated
Updated2026-05-10 14:30 (27 minutes ago)Flood - The river is flooding. Obstacles can be treacherous or deadly. The river should be avoided at this stage for casual trips and definitely for the inexperienced. Trips should be attempted only with protective gear and equipment.Flood(none)7813
Discharge2300 cfs (median: 3630 cfs)High - The river is high and potentially dangerous, especially for the young and / or inexperienced. Normal stream obstacles are sometimes difficult to navigate. Extended distances can be attempted, but canoe travel may not be advisable.High(none)3350
Height0.51 feetGood - Conditions are ideal for a canoe or kayak. Boats typically will drag on fewer than one-quarter of riffles, if at all, and portages are unnecessary or rare. Normal float lengths can be attempted without a problem.Good(none)2354
TrendSteady (falling over 24 hours)Low - River is low but can still be floated. Some riffles are okay but most come with significant dragging and might need a portage. Float lengths should be reduced to accommodate low flow, dragging, and portages.Low(none)1830
USGSExternal icon USGS Site (External icon Duck Duck Go Maps)Poor - River is too low to float comfortably. Most or all riffles will drag or must be portaged and some obstacles (such as slick shelf rock) cause undue problems. Avoid the river at this stage for casual paddling trips.Poor(none)1118

Trending Data

Plot Image

Trips for Current River (Missouri), Doniphan (07068000)

DateStartEndDistanceConditionDischargeHeightFishingDetails

A total of 0 rows are displayed.

Condition Descriptions

Fishing Conditions

Fish Species

Notes

Classic Trip List

The classic River Trips application is still available for use. It is updated with the new system using a data retrofit. It is no longer maintained. The original River Trips application is no longer updated (as of 1 Dec 2016) but can be checked for errors or for the condition of the data before it was converted to the new system.

Gauge Data Table

ObservationHeightDischargeMaximum
Discharge
Minimum
Discharge
Mean
Discharge
P05P10P20P25P50
(Median)
P75P80P90P95
2026-05-10 14:30 0.51 2300 54100 (2002) 1210 (1936) 4830 1360 1740 2100 2220 3630 5300 6030 8200 9800
2026-05-10 13:30 0.51 2300 54100 (2002) 1210 (1936) 4830 1360 1740 2100 2220 3630 5300 6030 8200 9800
2026-05-10 12:30 0.52 2320 54100 (2002) 1210 (1936) 4830 1360 1740 2100 2220 3630 5300 6030 8200 9800
2026-05-10 11:30 0.53 2330 54100 (2002) 1210 (1936) 4830 1360 1740 2100 2220 3630 5300 6030 8200 9800
2026-05-10 10:30 0.53 2330 54100 (2002) 1210 (1936) 4830 1360 1740 2100 2220 3630 5300 6030 8200 9800
2026-05-10 09:30 0.53 2330 54100 (2002) 1210 (1936) 4830 1360 1740 2100 2220 3630 5300 6030 8200 9800
2026-05-10 08:30 0.52 2320 54100 (2002) 1210 (1936) 4830 1360 1740 2100 2220 3630 5300 6030 8200 9800
2026-05-10 07:30 0.53 2330 54100 (2002) 1210 (1936) 4830 1360 1740 2100 2220 3630 5300 6030 8200 9800
2026-05-10 06:30 0.53 2330 54100 (2002) 1210 (1936) 4830 1360 1740 2100 2220 3630 5300 6030 8200 9800
2026-05-10 05:30 0.54 2340 54100 (2002) 1210 (1936) 4830 1360 1740 2100 2220 3630 5300 6030 8200 9800
2026-05-10 04:30 0.54 2340 54100 (2002) 1210 (1936) 4830 1360 1740 2100 2220 3630 5300 6030 8200 9800
2026-05-10 03:30 0.54 2340 54100 (2002) 1210 (1936) 4830 1360 1740 2100 2220 3630 5300 6030 8200 9800
2026-05-10 02:30 0.54 2340 54100 (2002) 1210 (1936) 4830 1360 1740 2100 2220 3630 5300 6030 8200 9800
2026-05-10 01:30 0.55 2350 54100 (2002) 1210 (1936) 4830 1360 1740 2100 2220 3630 5300 6030 8200 9800
2026-05-10 00:30 0.55 2350 54100 (2002) 1210 (1936) 4830 1360 1740 2100 2220 3630 5300 6030 8200 9800
2026-05-09 23:30 0.56 2360 54100 (2002) 1210 (1936) 4830 1360 1740 2100 2220 3630 5300 6030 8200 9800
2026-05-09 22:30 0.56 2360 46300 (2002) 1210 (1936) 5180 1350 1700 2100 2270 3540 5630 6380 9030 13500
2026-05-09 21:30 0.56 2360 46300 (2002) 1210 (1936) 5180 1350 1700 2100 2270 3540 5630 6380 9030 13500
2026-05-09 20:30 0.58 2380 46300 (2002) 1210 (1936) 5180 1350 1700 2100 2270 3540 5630 6380 9030 13500
2026-05-09 19:30 0.59 2390 46300 (2002) 1210 (1936) 5180 1350 1700 2100 2270 3540 5630 6380 9030 13500
2026-05-09 18:30 0.58 2380 46300 (2002) 1210 (1936) 5180 1350 1700 2100 2270 3540 5630 6380 9030 13500
2026-05-09 17:30 0.59 2390 46300 (2002) 1210 (1936) 5180 1350 1700 2100 2270 3540 5630 6380 9030 13500
2026-05-09 16:30 0.58 2380 46300 (2002) 1210 (1936) 5180 1350 1700 2100 2270 3540 5630 6380 9030 13500
2026-05-09 15:30 0.59 2390 46300 (2002) 1210 (1936) 5180 1350 1700 2100 2270 3540 5630 6380 9030 13500
2026-05-09 14:30 0.60 2400 46300 (2002) 1210 (1936) 5180 1350 1700 2100 2270 3540 5630 6380 9030 13500
2026-05-09 13:30 0.59 2390 46300 (2002) 1210 (1936) 5180 1350 1700 2100 2270 3540 5630 6380 9030 13500
2026-05-09 12:30 0.60 2400 46300 (2002) 1210 (1936) 5180 1350 1700 2100 2270 3540 5630 6380 9030 13500
2026-05-09 11:30 0.61 2420 46300 (2002) 1210 (1936) 5180 1350 1700 2100 2270 3540 5630 6380 9030 13500
2026-05-09 10:30 0.60 2400 46300 (2002) 1210 (1936) 5180 1350 1700 2100 2270 3540 5630 6380 9030 13500
2026-05-09 09:30 0.61 2420 46300 (2002) 1210 (1936) 5180 1350 1700 2100 2270 3540 5630 6380 9030 13500
2026-05-09 08:30 0.62 2430 46300 (2002) 1210 (1936) 5180 1350 1700 2100 2270 3540 5630 6380 9030 13500
2026-05-09 07:30 0.62 2430 46300 (2002) 1210 (1936) 5180 1350 1700 2100 2270 3540 5630 6380 9030 13500
2026-05-09 06:30 0.61 2420 46300 (2002) 1210 (1936) 5180 1350 1700 2100 2270 3540 5630 6380 9030 13500
2026-05-09 05:30 0.61 2420 46300 (2002) 1210 (1936) 5180 1350 1700 2100 2270 3540 5630 6380 9030 13500
2026-05-09 04:30 0.62 2430 46300 (2002) 1210 (1936) 5180 1350 1700 2100 2270 3540 5630 6380 9030 13500
2026-05-09 03:30 0.62 2430 46300 (2002) 1210 (1936) 5180 1350 1700 2100 2270 3540 5630 6380 9030 13500
2026-05-09 02:30 0.62 2430 46300 (2002) 1210 (1936) 5180 1350 1700 2100 2270 3540 5630 6380 9030 13500
2026-05-09 01:30 0.64 2450 46300 (2002) 1210 (1936) 5180 1350 1700 2100 2270 3540 5630 6380 9030 13500
2026-05-09 00:30 0.64 2450 46300 (2002) 1210 (1936) 5180 1350 1700 2100 2270 3540 5630 6380 9030 13500
2026-05-08 23:30 0.64 2450 46300 (2002) 1210 (1936) 5180 1350 1700 2100 2270 3540 5630 6380 9030 13500
2026-05-08 22:30 0.65 2460 37000 (1961) 1270 (2000) 4940 1420 1720 2200 2280 3610 5680 6470 9760 13900
2026-05-08 21:30 0.66 2470 37000 (1961) 1270 (2000) 4940 1420 1720 2200 2280 3610 5680 6470 9760 13900
2026-05-08 20:30 0.66 2470 37000 (1961) 1270 (2000) 4940 1420 1720 2200 2280 3610 5680 6470 9760 13900
2026-05-08 19:30 0.66 2470 37000 (1961) 1270 (2000) 4940 1420 1720 2200 2280 3610 5680 6470 9760 13900
2026-05-08 18:30 0.67 2480 37000 (1961) 1270 (2000) 4940 1420 1720 2200 2280 3610 5680 6470 9760 13900
2026-05-08 17:30 0.67 2480 37000 (1961) 1270 (2000) 4940 1420 1720 2200 2280 3610 5680 6470 9760 13900
2026-05-08 15:30 0.70 2520 37000 (1961) 1270 (2000) 4940 1420 1720 2200 2280 3610 5680 6470 9760 13900
2026-05-08 14:30 0.70 2520 37000 (1961) 1270 (2000) 4940 1420 1720 2200 2280 3610 5680 6470 9760 13900
2026-05-08 13:30 0.72 2540 37000 (1961) 1270 (2000) 4940 1420 1720 2200 2280 3610 5680 6470 9760 13900
2026-05-08 12:30 0.71 2530 37000 (1961) 1270 (2000) 4940 1420 1720 2200 2280 3610 5680 6470 9760 13900
2026-05-08 11:30 0.71 2530 37000 (1961) 1270 (2000) 4940 1420 1720 2200 2280 3610 5680 6470 9760 13900
2026-05-08 10:30 0.73 2550 37000 (1961) 1270 (2000) 4940 1420 1720 2200 2280 3610 5680 6470 9760 13900
2026-05-08 09:30 0.72 2540 37000 (1961) 1270 (2000) 4940 1420 1720 2200 2280 3610 5680 6470 9760 13900
2026-05-08 08:30 0.72 2540 37000 (1961) 1270 (2000) 4940 1420 1720 2200 2280 3610 5680 6470 9760 13900
2026-05-08 07:30 0.73 2550 37000 (1961) 1270 (2000) 4940 1420 1720 2200 2280 3610 5680 6470 9760 13900
2026-05-08 06:30 0.74 2560 37000 (1961) 1270 (2000) 4940 1420 1720 2200 2280 3610 5680 6470 9760 13900
2026-05-08 05:30 0.74 2560 37000 (1961) 1270 (2000) 4940 1420 1720 2200 2280 3610 5680 6470 9760 13900
2026-05-08 04:30 0.75 2570 37000 (1961) 1270 (2000) 4940 1420 1720 2200 2280 3610 5680 6470 9760 13900
2026-05-08 03:30 0.76 2590 37000 (1961) 1270 (2000) 4940 1420 1720 2200 2280 3610 5680 6470 9760 13900
2026-05-08 02:30 0.76 2590 37000 (1961) 1270 (2000) 4940 1420 1720 2200 2280 3610 5680 6470 9760 13900
2026-05-08 01:30 0.76 2590 37000 (1961) 1270 (2000) 4940 1420 1720 2200 2280 3610 5680 6470 9760 13900
2026-05-08 00:30 0.77 2600 37000 (1961) 1270 (2000) 4940 1420 1720 2200 2280 3610 5680 6470 9760 13900
2026-05-07 23:30 0.77 2600 37000 (1961) 1270 (2000) 4940 1420 1720 2200 2280 3610 5680 6470 9760 13900
2026-05-07 22:30 0.78 2610 24500 (2022) 1280 (1936) 4770 1410 1690 2240 2310 3480 5850 6550 9070 11200
2026-05-07 21:30 0.79 2620 24500 (2022) 1280 (1936) 4770 1410 1690 2240 2310 3480 5850 6550 9070 11200
2026-05-07 20:30 0.79 2620 24500 (2022) 1280 (1936) 4770 1410 1690 2240 2310 3480 5850 6550 9070 11200
2026-05-07 19:30 0.81 2640 24500 (2022) 1280 (1936) 4770 1410 1690 2240 2310 3480 5850 6550 9070 11200
2026-05-07 18:30 0.80 2630 24500 (2022) 1280 (1936) 4770 1410 1690 2240 2310 3480 5850 6550 9070 11200
2026-05-07 17:30 0.81 2640 24500 (2022) 1280 (1936) 4770 1410 1690 2240 2310 3480 5850 6550 9070 11200
2026-05-07 16:30 0.82 2650 24500 (2022) 1280 (1936) 4770 1410 1690 2240 2310 3480 5850 6550 9070 11200
2026-05-07 15:30 0.83 2670 24500 (2022) 1280 (1936) 4770 1410 1690 2240 2310 3480 5850 6550 9070 11200
2026-05-07 14:30 0.84 2680 24500 (2022) 1280 (1936) 4770 1410 1690 2240 2310 3480 5850 6550 9070 11200
2026-05-07 13:30 0.84 2680 24500 (2022) 1280 (1936) 4770 1410 1690 2240 2310 3480 5850 6550 9070 11200
2026-05-07 12:30 0.86 2700 24500 (2022) 1280 (1936) 4770 1410 1690 2240 2310 3480 5850 6550 9070 11200
2026-05-07 11:30 0.85 2690 24500 (2022) 1280 (1936) 4770 1410 1690 2240 2310 3480 5850 6550 9070 11200
2026-05-07 10:30 0.87 2710 24500 (2022) 1280 (1936) 4770 1410 1690 2240 2310 3480 5850 6550 9070 11200
2026-05-07 09:30 0.86 2700 24500 (2022) 1280 (1936) 4770 1410 1690 2240 2310 3480 5850 6550 9070 11200
2026-05-07 08:30 0.87 2710 24500 (2022) 1280 (1936) 4770 1410 1690 2240 2310 3480 5850 6550 9070 11200
2026-05-07 07:30 0.89 2740 24500 (2022) 1280 (1936) 4770 1410 1690 2240 2310 3480 5850 6550 9070 11200
2026-05-07 06:30 0.88 2730 24500 (2022) 1280 (1936) 4770 1410 1690 2240 2310 3480 5850 6550 9070 11200
2026-05-07 05:30 0.91 2760 24500 (2022) 1280 (1936) 4770 1410 1690 2240 2310 3480 5850 6550 9070 11200
2026-05-07 04:30 0.90 2750 24500 (2022) 1280 (1936) 4770 1410 1690 2240 2310 3480 5850 6550 9070 11200
2026-05-07 03:30 0.91 2760 24500 (2022) 1280 (1936) 4770 1410 1690 2240 2310 3480 5850 6550 9070 11200
2026-05-07 02:30 0.91 2760 24500 (2022) 1280 (1936) 4770 1410 1690 2240 2310 3480 5850 6550 9070 11200
2026-05-07 01:30 0.92 2770 24500 (2022) 1280 (1936) 4770 1410 1690 2240 2310 3480 5850 6550 9070 11200
2026-05-07 00:30 0.91 2760 24500 (2022) 1280 (1936) 4770 1410 1690 2240 2310 3480 5850 6550 9070 11200
2026-05-06 23:30 0.93 2780 24500 (2022) 1280 (1936) 4770 1410 1690 2240 2310 3480 5850 6550 9070 11200
2026-05-06 22:30 0.93 2780 42900 (2017) 1280 (1936) 5030 1430 1720 2280 2390 3610 6210 6910 9490 12900
2026-05-06 21:30 0.94 2800 42900 (2017) 1280 (1936) 5030 1430 1720 2280 2390 3610 6210 6910 9490 12900
2026-05-06 20:30 0.94 2800 42900 (2017) 1280 (1936) 5030 1430 1720 2280 2390 3610 6210 6910 9490 12900
2026-05-06 19:30 0.93 2780 42900 (2017) 1280 (1936) 5030 1430 1720 2280 2390 3610 6210 6910 9490 12900
2026-05-06 18:30 0.94 2800 42900 (2017) 1280 (1936) 5030 1430 1720 2280 2390 3610 6210 6910 9490 12900
2026-05-06 17:30 0.95 2810 42900 (2017) 1280 (1936) 5030 1430 1720 2280 2390 3610 6210 6910 9490 12900
2026-05-06 16:30 0.96 2820 42900 (2017) 1280 (1936) 5030 1430 1720 2280 2390 3610 6210 6910 9490 12900
2026-05-06 15:30 0.97 2830 42900 (2017) 1280 (1936) 5030 1430 1720 2280 2390 3610 6210 6910 9490 12900
2026-05-06 14:30 0.97 2830 42900 (2017) 1280 (1936) 5030 1430 1720 2280 2390 3610 6210 6910 9490 12900
2026-05-06 13:30 0.98 2840 42900 (2017) 1280 (1936) 5030 1430 1720 2280 2390 3610 6210 6910 9490 12900
2026-05-06 12:30 0.97 2830 42900 (2017) 1280 (1936) 5030 1430 1720 2280 2390 3610 6210 6910 9490 12900
2026-05-06 11:30 0.98 2840 42900 (2017) 1280 (1936) 5030 1430 1720 2280 2390 3610 6210 6910 9490 12900
2026-05-06 10:30 0.98 2840 42900 (2017) 1280 (1936) 5030 1430 1720 2280 2390 3610 6210 6910 9490 12900
2026-05-06 09:30 0.97 2830 42900 (2017) 1280 (1936) 5030 1430 1720 2280 2390 3610 6210 6910 9490 12900
2026-05-06 08:30 0.97 2830 42900 (2017) 1280 (1936) 5030 1430 1720 2280 2390 3610 6210 6910 9490 12900
2026-05-06 07:30 0.97 2830 42900 (2017) 1280 (1936) 5030 1430 1720 2280 2390 3610 6210 6910 9490 12900
2026-05-06 06:30 0.97 2830 42900 (2017) 1280 (1936) 5030 1430 1720 2280 2390 3610 6210 6910 9490 12900
2026-05-06 05:30 0.98 2840 42900 (2017) 1280 (1936) 5030 1430 1720 2280 2390 3610 6210 6910 9490 12900
2026-05-06 03:30 0.98 2840 42900 (2017) 1280 (1936) 5030 1430 1720 2280 2390 3610 6210 6910 9490 12900
2026-05-06 01:30 1.01 2880 42900 (2017) 1280 (1936) 5030 1430 1720 2280 2390 3610 6210 6910 9490 12900
2026-05-06 00:30 1.02 2890 42900 (2017) 1280 (1936) 5030 1430 1720 2280 2390 3610 6210 6910 9490 12900
2026-05-05 23:30 1.00 2870 42900 (2017) 1280 (1936) 5030 1430 1720 2280 2390 3610 6210 6910 9490 12900
2026-05-05 22:30 1.02 2890 30600 (2017) 1280 (1936) 5390 1360 1720 2310 2480 3650 6570 7470 10200 15800
2026-05-05 21:30 1.02 2890 30600 (2017) 1280 (1936) 5390 1360 1720 2310 2480 3650 6570 7470 10200 15800
2026-05-05 20:30 1.04 2920 30600 (2017) 1280 (1936) 5390 1360 1720 2310 2480 3650 6570 7470 10200 15800
2026-05-05 19:30 1.04 2920 30600 (2017) 1280 (1936) 5390 1360 1720 2310 2480 3650 6570 7470 10200 15800
2026-05-05 18:30 1.03 2900 30600 (2017) 1280 (1936) 5390 1360 1720 2310 2480 3650 6570 7470 10200 15800
2026-05-05 17:30 1.04 2920 30600 (2017) 1280 (1936) 5390 1360 1720 2310 2480 3650 6570 7470 10200 15800
2026-05-05 16:30 1.04 2920 30600 (2017) 1280 (1936) 5390 1360 1720 2310 2480 3650 6570 7470 10200 15800
2026-05-05 15:30 1.05 2930 30600 (2017) 1280 (1936) 5390 1360 1720 2310 2480 3650 6570 7470 10200 15800
2026-05-05 13:30 1.06 2940 30600 (2017) 1280 (1936) 5390 1360 1720 2310 2480 3650 6570 7470 10200 15800
2026-05-05 11:30 1.07 2950 30600 (2017) 1280 (1936) 5390 1360 1720 2310 2480 3650 6570 7470 10200 15800
2026-05-05 10:30 1.08 2970 30600 (2017) 1280 (1936) 5390 1360 1720 2310 2480 3650 6570 7470 10200 15800
2026-05-05 09:30 1.09 2980 30600 (2017) 1280 (1936) 5390 1360 1720 2310 2480 3650 6570 7470 10200 15800
2026-05-05 08:30 1.09 2980 30600 (2017) 1280 (1936) 5390 1360 1720 2310 2480 3650 6570 7470 10200 15800
2026-05-05 07:30 1.11 3000 30600 (2017) 1280 (1936) 5390 1360 1720 2310 2480 3650 6570 7470 10200 15800
2026-05-05 06:30 1.10 2990 30600 (2017) 1280 (1936) 5390 1360 1720 2310 2480 3650 6570 7470 10200 15800
2026-05-05 05:30 1.11 3000 30600 (2017) 1280 (1936) 5390 1360 1720 2310 2480 3650 6570 7470 10200 15800
2026-05-05 04:30 1.10 2990 30600 (2017) 1280 (1936) 5390 1360 1720 2310 2480 3650 6570 7470 10200 15800
2026-05-05 03:30 1.12 3010 30600 (2017) 1280 (1936) 5390 1360 1720 2310 2480 3650 6570 7470 10200 15800
2026-05-05 02:30 1.13 3030 30600 (2017) 1280 (1936) 5390 1360 1720 2310 2480 3650 6570 7470 10200 15800
2026-05-05 01:30 1.14 3040 30600 (2017) 1280 (1936) 5390 1360 1720 2310 2480 3650 6570 7470 10200 15800
2026-05-05 00:30 1.14 3040 30600 (2017) 1280 (1936) 5390 1360 1720 2310 2480 3650 6570 7470 10200 15800
2026-05-04 23:30 1.17 3080 30600 (2017) 1280 (1936) 5390 1360 1720 2310 2480 3650 6570 7470 10200 15800
2026-05-04 22:30 1.18 3090 23800 (2011) 1270 (2000) 5240 1380 1730 2300 2450 3870 6310 7700 9760 15300
2026-05-04 21:30 1.18 3090 23800 (2011) 1270 (2000) 5240 1380 1730 2300 2450 3870 6310 7700 9760 15300
2026-05-04 20:30 1.18 3090 23800 (2011) 1270 (2000) 5240 1380 1730 2300 2450 3870 6310 7700 9760 15300
2026-05-04 19:30 1.19 3100 23800 (2011) 1270 (2000) 5240 1380 1730 2300 2450 3870 6310 7700 9760 15300
2026-05-04 18:30 1.19 3100 23800 (2011) 1270 (2000) 5240 1380 1730 2300 2450 3870 6310 7700 9760 15300
2026-05-04 17:30 1.20 3110 23800 (2011) 1270 (2000) 5240 1380 1730 2300 2450 3870 6310 7700 9760 15300
2026-05-04 16:30 1.22 3140 23800 (2011) 1270 (2000) 5240 1380 1730 2300 2450 3870 6310 7700 9760 15300
2026-05-04 15:30 1.23 3150 23800 (2011) 1270 (2000) 5240 1380 1730 2300 2450 3870 6310 7700 9760 15300
2026-05-04 14:30 1.23 3150 23800 (2011) 1270 (2000) 5240 1380 1730 2300 2450 3870 6310 7700 9760 15300
2026-05-04 13:30 1.23 3150 23800 (2011) 1270 (2000) 5240 1380 1730 2300 2450 3870 6310 7700 9760 15300
2026-05-04 12:30 1.26 3190 23800 (2011) 1270 (2000) 5240 1380 1730 2300 2450 3870 6310 7700 9760 15300
2026-05-04 11:30 1.27 3200 23800 (2011) 1270 (2000) 5240 1380 1730 2300 2450 3870 6310 7700 9760 15300
2026-05-04 10:30 1.28 3210 23800 (2011) 1270 (2000) 5240 1380 1730 2300 2450 3870 6310 7700 9760 15300
2026-05-04 09:30 1.29 3230 23800 (2011) 1270 (2000) 5240 1380 1730 2300 2450 3870 6310 7700 9760 15300
2026-05-04 08:30 1.29 3230 23800 (2011) 1270 (2000) 5240 1380 1730 2300 2450 3870 6310 7700 9760 15300
2026-05-04 07:30 1.30 3240 23800 (2011) 1270 (2000) 5240 1380 1730 2300 2450 3870 6310 7700 9760 15300
2026-05-04 06:30 1.30 3240 23800 (2011) 1270 (2000) 5240 1380 1730 2300 2450 3870 6310 7700 9760 15300
2026-05-04 05:30 1.33 3280 23800 (2011) 1270 (2000) 5240 1380 1730 2300 2450 3870 6310 7700 9760 15300
2026-05-04 04:30 1.34 3290 23800 (2011) 1270 (2000) 5240 1380 1730 2300 2450 3870 6310 7700 9760 15300
2026-05-04 03:30 1.34 3290 23800 (2011) 1270 (2000) 5240 1380 1730 2300 2450 3870 6310 7700 9760 15300
2026-05-04 02:30 1.36 3320 23800 (2011) 1270 (2000) 5240 1380 1730 2300 2450 3870 6310 7700 9760 15300
2026-05-04 01:30 1.36 3320 23800 (2011) 1270 (2000) 5240 1380 1730 2300 2450 3870 6310 7700 9760 15300
2026-05-04 00:30 1.37 3330 23800 (2011) 1270 (2000) 5240 1380 1730 2300 2450 3870 6310 7700 9760 15300
2026-05-03 23:30 1.39 3360 23800 (2011) 1270 (2000) 5240 1380 1730 2300 2450 3870 6310 7700 9760 15300
2026-05-03 22:30 1.39 3360 34000 (2011) 1280 (2000) 5430 1410 1770 2300 2510 3840 6190 7080 10100 15500
2026-05-03 21:30 1.42 3390 34000 (2011) 1280 (2000) 5430 1410 1770 2300 2510 3840 6190 7080 10100 15500
2026-05-03 20:30 1.42 3390 34000 (2011) 1280 (2000) 5430 1410 1770 2300 2510 3840 6190 7080 10100 15500
2026-05-03 19:30 1.43 3410 34000 (2011) 1280 (2000) 5430 1410 1770 2300 2510 3840 6190 7080 10100 15500
2026-05-03 18:30 1.45 3430 34000 (2011) 1280 (2000) 5430 1410 1770 2300 2510 3840 6190 7080 10100 15500
2026-05-03 17:30 1.45 3430 34000 (2011) 1280 (2000) 5430 1410 1770 2300 2510 3840 6190 7080 10100 15500
2026-05-03 16:30 1.47 3460 34000 (2011) 1280 (2000) 5430 1410 1770 2300 2510 3840 6190 7080 10100 15500
2026-05-03 15:30 1.47 3460 34000 (2011) 1280 (2000) 5430 1410 1770 2300 2510 3840 6190 7080 10100 15500
2026-05-03 14:30 1.49 3490 34000 (2011) 1280 (2000) 5430 1410 1770 2300 2510 3840 6190 7080 10100 15500
2026-05-03 13:30 1.50 3500 34000 (2011) 1280 (2000) 5430 1410 1770 2300 2510 3840 6190 7080 10100 15500
2026-05-03 12:30 1.50 3500 34000 (2011) 1280 (2000) 5430 1410 1770 2300 2510 3840 6190 7080 10100 15500
2026-05-03 11:30 1.52 3530 34000 (2011) 1280 (2000) 5430 1410 1770 2300 2510 3840 6190 7080 10100 15500
2026-05-03 10:30 1.53 3540 34000 (2011) 1280 (2000) 5430 1410 1770 2300 2510 3840 6190 7080 10100 15500
2026-05-03 09:30 1.55 3570 34000 (2011) 1280 (2000) 5430 1410 1770 2300 2510 3840 6190 7080 10100 15500
2026-05-03 08:30 1.55 3570 34000 (2011) 1280 (2000) 5430 1410 1770 2300 2510 3840 6190 7080 10100 15500
2026-05-03 07:30 1.57 3590 34000 (2011) 1280 (2000) 5430 1410 1770 2300 2510 3840 6190 7080 10100 15500
2026-05-03 06:30 1.59 3620 34000 (2011) 1280 (2000) 5430 1410 1770 2300 2510 3840 6190 7080 10100 15500
2026-05-03 04:30 1.62 3660 34000 (2011) 1280 (2000) 5430 1410 1770 2300 2510 3840 6190 7080 10100 15500
2026-05-03 03:30 1.63 3670 34000 (2011) 1280 (2000) 5430 1410 1770 2300 2510 3840 6190 7080 10100 15500
2026-05-03 02:30 1.65 3700 34000 (2011) 1280 (2000) 5430 1410 1770 2300 2510 3840 6190 7080 10100 15500
2026-05-03 01:30 1.68 3740 34000 (2011) 1280 (2000) 5430 1410 1770 2300 2510 3840 6190 7080 10100 15500
2026-05-03 00:30 1.68 3740 34000 (2011) 1280 (2000) 5430 1410 1770 2300 2510 3840 6190 7080 10100 15500
2026-05-02 23:30 1.70 3770 34000 (2011) 1280 (2000) 5430 1410 1770 2300 2510 3840 6190 7080 10100 15500

A total of 178 rows are displayed for years 1922 through 2025.